VLG4UD LEZL-GCXO
Flight info
| Callsign | VLG4UD |
|---|---|
| Flight time | 2h 2m |
| Altitude | 35000 |
| Route | CLANA N857 KORNO UN857 TERTO |
| Aircraft | A320/M-SDE3FGHIRWY/LB1 |
Departure
| Time | 2026-04-20 08:44 |
|---|---|
| Airport | Seville Airport (LEZL) |
Arrival
| Time | 2026-04-20 10:47 |
|---|---|
| Airport | Tenerife Norte-Ciudad de La Laguna Airport (GCXO) |
| Time | Latitude | Longitude | Altitude | Speed | Heading |
|---|---|---|---|---|---|
| 2026-04-20 08:20 | 37.42280 | -5.89885 | 94 ft | 0 kts | 315° |
| 2026-04-20 08:34 | 37.42270 | -5.89872 | 96 ft | 4 kts | 314° |
| 2026-04-20 08:34 | 37.42251 | -5.89847 | 95 ft | 4 kts | 313° |
| 2026-04-20 08:34 | 37.42234 | -5.89823 | 93 ft | 3 kts | 302° |
| 2026-04-20 08:34 | 37.42228 | -5.89808 | 93 ft | 2 kts | 253° |
| 2026-04-20 08:35 | 37.42233 | -5.89797 | 94 ft | 2 kts | 226° |
| 2026-04-20 08:35 | 37.42236 | -5.89793 | 93 ft | 0 kts | 227° |
| 2026-04-20 08:38 | 37.42229 | -5.89802 | 93 ft | 4 kts | 225° |
| 2026-04-20 08:38 | 37.42199 | -5.89840 | 93 ft | 8 kts | 225° |
| 2026-04-20 08:39 | 37.42160 | -5.89888 | 94 ft | 7 kts | 224° |
| 2026-04-20 08:39 | 37.42128 | -5.89928 | 94 ft | 6 kts | 225° |
| 2026-04-20 08:39 | 37.42098 | -5.89966 | 95 ft | 8 kts | 225° |
| 2026-04-20 08:39 | 37.42057 | -5.90021 | 95 ft | 8 kts | 240° |
| 2026-04-20 08:40 | 37.42048 | -5.90081 | 94 ft | 6 kts | 240° |
| 2026-04-20 08:40 | 37.42007 | -5.90095 | 95 ft | 6 kts | 183° |
| 2026-04-20 08:40 | 37.41981 | -5.90143 | 95 ft | 9 kts | 265° |
| 2026-04-20 08:40 | 37.41980 | -5.90245 | 95 ft | 14 kts | 270° |
| 2026-04-20 08:41 | 37.41980 | -5.90390 | 94 ft | 17 kts | 269° |
| 2026-04-20 08:41 | 37.41979 | -5.90536 | 93 ft | 16 kts | 270° |
| 2026-04-20 08:41 | 37.41978 | -5.90668 | 93 ft | 14 kts | 270° |
| 2026-04-20 08:41 | 37.41978 | -5.90787 | 92 ft | 13 kts | 270° |
| 2026-04-20 08:42 | 37.41977 | -5.90898 | 92 ft | 12 kts | 269° |
| 2026-04-20 08:42 | 37.41948 | -5.90989 | 92 ft | 11 kts | 239° |
| 2026-04-20 08:42 | 37.41911 | -5.91069 | 89 ft | 10 kts | 240° |
| 2026-04-20 08:42 | 37.41878 | -5.91140 | 91 ft | 9 kts | 239° |
| 2026-04-20 08:43 | 37.41841 | -5.91187 | 90 ft | 7 kts | 202° |
| 2026-04-20 08:43 | 37.41801 | -5.91181 | 91 ft | 5 kts | 152° |
| 2026-04-20 08:43 | 37.41789 | -5.91142 | 91 ft | 6 kts | 91° |
| 2026-04-20 08:43 | 37.41789 | -5.90963 | 94 ft | 51 kts | 89° |
| 2026-04-20 08:44 | 37.41791 | -5.90227 | 97 ft | 114 kts | 90° |
| 2026-04-20 08:44 | 37.41797 | -5.89004 | 105 ft | 163 kts | 89° |
| 2026-04-20 08:44 | 37.41799 | -5.87539 | 590 ft | 167 kts | 89° |
| 2026-04-20 08:44 | 37.41768 | -5.86075 | 1241 ft | 167 kts | 91° |
| 2026-04-20 08:45 | 37.41733 | -5.84612 | 1864 ft | 169 kts | 91° |
| 2026-04-20 08:45 | 37.41659 | -5.83052 | 2144 ft | 190 kts | 102° |
| 2026-04-20 08:45 | 37.40877 | -5.81646 | 2406 ft | 213 kts | 148° |
| 2026-04-20 08:45 | 37.39409 | -5.81308 | 2923 ft | 223 kts | 191° |
| 2026-04-20 08:46 | 37.38087 | -5.82320 | 3577 ft | 230 kts | 233° |
| 2026-04-20 08:46 | 37.37531 | -5.84193 | 4288 ft | 233 kts | 263° |
| 2026-04-20 08:46 | 37.37474 | -5.86215 | 5059 ft | 232 kts | 272° |
| 2026-04-20 08:46 | 37.37406 | -5.88236 | 5731 ft | 232 kts | 248° |
| 2026-04-20 08:47 | 37.36550 | -5.89928 | 6368 ft | 231 kts | 224° |
| 2026-04-20 08:47 | 37.35351 | -5.91281 | 7023 ft | 233 kts | 217° |
| 2026-04-20 08:47 | 37.34507 | -5.92112 | 7467 ft | 233 kts | 216° |
| 2026-04-20 08:47 | 37.32787 | -5.93780 | 8358 ft | 235 kts | 218° |
| 2026-04-20 08:48 | 37.31940 | -5.94627 | 8814 ft | 235 kts | 219° |
| 2026-04-20 08:48 | 37.30664 | -5.95943 | 9462 ft | 239 kts | 220° |
| 2026-04-20 08:48 | 37.29388 | -5.97302 | 10104 ft | 242 kts | 222° |
| 2026-04-20 08:48 | 37.28115 | -5.98687 | 10708 ft | 244 kts | 222° |
| 2026-04-20 08:49 | 37.26833 | -6.00100 | 11329 ft | 246 kts | 223° |
| 2026-04-20 08:49 | 37.25546 | -6.01527 | 11961 ft | 248 kts | 223° |
| 2026-04-20 08:49 | 37.24251 | -6.02968 | 12589 ft | 249 kts | 223° |
| 2026-04-20 08:49 | 37.22951 | -6.04414 | 13216 ft | 251 kts | 223° |
| 2026-04-20 08:50 | 37.21641 | -6.05877 | 13844 ft | 253 kts | 224° |
| 2026-04-20 08:50 | 37.20322 | -6.07352 | 14399 ft | 255 kts | 223° |
| 2026-04-20 08:50 | 37.18996 | -6.08837 | 14953 ft | 256 kts | 223° |
| 2026-04-20 08:50 | 37.17664 | -6.10325 | 15507 ft | 258 kts | 223° |
| 2026-04-20 08:51 | 37.16319 | -6.11822 | 16060 ft | 259 kts | 222° |
| 2026-04-20 08:51 | 37.14965 | -6.13325 | 16604 ft | 261 kts | 222° |
| 2026-04-20 08:51 | 37.13601 | -6.14838 | 17153 ft | 262 kts | 221° |
| 2026-04-20 08:51 | 37.12234 | -6.16355 | 17697 ft | 264 kts | 221° |
| 2026-04-20 08:52 | 37.10802 | -6.17816 | 18139 ft | 271 kts | 211° |
| 2026-04-20 08:52 | 37.09004 | -6.18709 | 18285 ft | 288 kts | 192° |
| 2026-04-20 08:52 | 37.06978 | -6.19206 | 18391 ft | 305 kts | 192° |
| 2026-04-20 08:52 | 37.04840 | -6.19719 | 18499 ft | 322 kts | 192° |
| 2026-04-20 08:53 | 37.02584 | -6.20260 | 18629 ft | 338 kts | 192° |
| 2026-04-20 08:53 | 37.00223 | -6.20833 | 18741 ft | 353 kts | 194° |
| 2026-04-20 08:53 | 36.97867 | -6.21861 | 18860 ft | 366 kts | 208° |
| 2026-04-20 08:53 | 36.95757 | -6.23699 | 19113 ft | 374 kts | 221° |
| 2026-04-20 08:54 | 36.93803 | -6.25866 | 19539 ft | 378 kts | 221° |
| 2026-04-20 08:54 | 36.91823 | -6.28054 | 20022 ft | 381 kts | 221° |
| 2026-04-20 08:54 | 36.89826 | -6.30252 | 20507 ft | 384 kts | 221° |
| 2026-04-20 08:54 | 36.87813 | -6.32464 | 20993 ft | 386 kts | 221° |
| 2026-04-20 08:55 | 36.85791 | -6.34680 | 21473 ft | 389 kts | 221° |
| 2026-04-20 08:55 | 36.83748 | -6.36916 | 21926 ft | 392 kts | 221° |
| 2026-04-20 08:55 | 36.81692 | -6.39168 | 22400 ft | 394 kts | 221° |
| 2026-04-20 08:55 | 36.79623 | -6.41436 | 22836 ft | 397 kts | 221° |
| 2026-04-20 08:56 | 36.77543 | -6.43710 | 23269 ft | 400 kts | 221° |
| 2026-04-20 08:56 | 36.75442 | -6.46003 | 23669 ft | 402 kts | 221° |
| 2026-04-20 08:56 | 36.73329 | -6.48306 | 24033 ft | 404 kts | 222° |
| 2026-04-20 08:56 | 36.71206 | -6.50618 | 24395 ft | 406 kts | 221° |
| 2026-04-20 08:57 | 36.69079 | -6.52932 | 24747 ft | 408 kts | 221° |
| 2026-04-20 08:57 | 36.66938 | -6.55261 | 25088 ft | 409 kts | 221° |
| 2026-04-20 08:57 | 36.64791 | -6.57600 | 25440 ft | 411 kts | 221° |
| 2026-04-20 08:57 | 36.62665 | -6.59914 | 25773 ft | 412 kts | 221° |
| 2026-04-20 08:58 | 36.60499 | -6.62266 | 26096 ft | 414 kts | 221° |
| 2026-04-20 08:58 | 36.58300 | -6.64653 | 26425 ft | 415 kts | 221° |
| 2026-04-20 08:58 | 36.56148 | -6.66989 | 26741 ft | 417 kts | 221° |
| 2026-04-20 08:58 | 36.53956 | -6.69369 | 27030 ft | 419 kts | 221° |
| 2026-04-20 08:59 | 36.51728 | -6.71786 | 27332 ft | 421 kts | 221° |
| 2026-04-20 08:59 | 36.49509 | -6.74174 | 27644 ft | 422 kts | 220° |
| 2026-04-20 08:59 | 36.47256 | -6.76532 | 27932 ft | 424 kts | 219° |
| 2026-04-20 08:59 | 36.45006 | -6.78836 | 28218 ft | 426 kts | 219° |
| 2026-04-20 09:00 | 36.42709 | -6.81169 | 28503 ft | 427 kts | 219° |
| 2026-04-20 09:00 | 36.40413 | -6.83505 | 28785 ft | 428 kts | 219° |
| 2026-04-20 09:00 | 36.38109 | -6.85860 | 29089 ft | 429 kts | 219° |
| 2026-04-20 09:00 | 36.35808 | -6.88224 | 29378 ft | 430 kts | 219° |
| 2026-04-20 09:01 | 36.33504 | -6.90595 | 29633 ft | 431 kts | 219° |
| 2026-04-20 09:01 | 36.31197 | -6.92965 | 29865 ft | 432 kts | 219° |
| 2026-04-20 09:01 | 36.28875 | -6.95347 | 30065 ft | 434 kts | 219° |
| 2026-04-20 09:01 | 36.26540 | -6.97740 | 30225 ft | 436 kts | 219° |
| 2026-04-20 09:02 | 36.24201 | -7.00133 | 30399 ft | 438 kts | 219° |
| 2026-04-20 09:02 | 36.21852 | -7.02531 | 30654 ft | 437 kts | 219° |
| 2026-04-20 09:02 | 36.19509 | -7.04925 | 30920 ft | 436 kts | 219° |
| 2026-04-20 09:02 | 36.17171 | -7.07315 | 31175 ft | 435 kts | 219° |
| 2026-04-20 09:03 | 36.14835 | -7.09699 | 31439 ft | 435 kts | 219° |
| 2026-04-20 09:03 | 36.12509 | -7.12072 | 31697 ft | 434 kts | 219° |
| 2026-04-20 09:03 | 36.10180 | -7.14447 | 31951 ft | 433 kts | 219° |
| 2026-04-20 09:03 | 36.07853 | -7.16816 | 32206 ft | 433 kts | 219° |
| 2026-04-20 09:04 | 36.05527 | -7.19180 | 32455 ft | 432 kts | 219° |
| 2026-04-20 09:04 | 36.03178 | -7.21565 | 32703 ft | 432 kts | 219° |
| 2026-04-20 09:04 | 36.00887 | -7.23893 | 32899 ft | 433 kts | 220° |
| 2026-04-20 09:04 | 35.98561 | -7.26260 | 33115 ft | 434 kts | 220° |
| 2026-04-20 09:05 | 35.96231 | -7.28629 | 33316 ft | 434 kts | 220° |
| 2026-04-20 09:05 | 35.93906 | -7.30989 | 33545 ft | 434 kts | 221° |
| 2026-04-20 09:05 | 35.91573 | -7.33352 | 33750 ft | 434 kts | 220° |
| 2026-04-20 09:05 | 35.89237 | -7.35713 | 33986 ft | 434 kts | 221° |
| 2026-04-20 09:06 | 35.86902 | -7.38071 | 34190 ft | 433 kts | 221° |
| 2026-04-20 09:06 | 35.84575 | -7.40418 | 34405 ft | 433 kts | 220° |
| 2026-04-20 09:06 | 35.82246 | -7.42764 | 34627 ft | 432 kts | 220° |
| 2026-04-20 09:06 | 35.79915 | -7.45095 | 34843 ft | 431 kts | 220° |
| 2026-04-20 09:07 | 35.77585 | -7.47417 | 34950 ft | 430 kts | 220° |
| 2026-04-20 09:07 | 35.72956 | -7.52022 | 34975 ft | 427 kts | 220° |
| 2026-04-20 09:08 | 35.68335 | -7.56623 | 34968 ft | 427 kts | 220° |
| 2026-04-20 09:08 | 35.63724 | -7.61213 | 34967 ft | 426 kts | 220° |
| 2026-04-20 09:09 | 35.59115 | -7.65794 | 34961 ft | 425 kts | 220° |
| 2026-04-20 09:09 | 35.54517 | -7.70357 | 34948 ft | 425 kts | 220° |
| 2026-04-20 09:10 | 35.49911 | -7.74914 | 34943 ft | 425 kts | 220° |
| 2026-04-20 09:10 | 35.45313 | -7.79453 | 34954 ft | 424 kts | 220° |
| 2026-04-20 09:11 | 35.40714 | -7.83996 | 34947 ft | 424 kts | 220° |
| 2026-04-20 09:11 | 35.36144 | -7.88553 | 34939 ft | 424 kts | 220° |
| 2026-04-20 09:12 | 35.31580 | -7.93125 | 34936 ft | 423 kts | 220° |
| 2026-04-20 09:12 | 35.27023 | -7.97687 | 34928 ft | 423 kts | 220° |
| 2026-04-20 09:13 | 35.22452 | -8.02238 | 34922 ft | 423 kts | 220° |
| 2026-04-20 09:13 | 35.17887 | -8.06775 | 34939 ft | 423 kts | 220° |
| 2026-04-20 09:14 | 35.13318 | -8.11311 | 34928 ft | 423 kts | 220° |
| 2026-04-20 09:14 | 35.08758 | -8.15839 | 34926 ft | 423 kts | 220° |
| 2026-04-20 09:15 | 35.04184 | -8.20358 | 34931 ft | 423 kts | 220° |
| 2026-04-20 09:15 | 34.99622 | -8.24874 | 34939 ft | 423 kts | 220° |
| 2026-04-20 09:16 | 34.95056 | -8.29396 | 34918 ft | 423 kts | 220° |
| 2026-04-20 09:16 | 34.90490 | -8.33901 | 34927 ft | 423 kts | 220° |
| 2026-04-20 09:17 | 34.85917 | -8.38395 | 34950 ft | 422 kts | 220° |
| 2026-04-20 09:17 | 34.81356 | -8.42868 | 34955 ft | 421 kts | 220° |
| 2026-04-20 09:18 | 34.76801 | -8.47345 | 34955 ft | 420 kts | 220° |
| 2026-04-20 09:18 | 34.72251 | -8.51804 | 34954 ft | 420 kts | 220° |
| 2026-04-20 09:19 | 34.67693 | -8.56258 | 34944 ft | 420 kts | 220° |
| 2026-04-20 09:19 | 34.63146 | -8.60710 | 34941 ft | 420 kts | 220° |
| 2026-04-20 09:20 | 34.58580 | -8.65153 | 34942 ft | 420 kts | 220° |
| 2026-04-20 09:20 | 34.54048 | -8.69573 | 34944 ft | 421 kts | 220° |
| 2026-04-20 09:21 | 34.49490 | -8.74008 | 34951 ft | 420 kts | 220° |
| 2026-04-20 09:21 | 34.44928 | -8.78435 | 34952 ft | 419 kts | 220° |
| 2026-04-20 09:22 | 34.40374 | -8.82843 | 34938 ft | 419 kts | 220° |
| 2026-04-20 09:22 | 34.35804 | -8.87234 | 34936 ft | 419 kts | 220° |
| 2026-04-20 09:23 | 34.31236 | -8.91613 | 34938 ft | 419 kts | 220° |
| 2026-04-20 09:23 | 34.26662 | -8.96000 | 34934 ft | 419 kts | 220° |
| 2026-04-20 09:24 | 34.22096 | -9.00382 | 34934 ft | 419 kts | 220° |
| 2026-04-20 09:24 | 34.17523 | -9.04762 | 34932 ft | 419 kts | 220° |
| 2026-04-20 09:25 | 34.12950 | -9.09122 | 34923 ft | 419 kts | 220° |
| 2026-04-20 09:25 | 34.08371 | -9.13472 | 34931 ft | 418 kts | 220° |
| 2026-04-20 09:26 | 34.03809 | -9.17812 | 34932 ft | 418 kts | 220° |
| 2026-04-20 09:26 | 33.99247 | -9.22157 | 34932 ft | 418 kts | 220° |
| 2026-04-20 09:27 | 33.94683 | -9.26480 | 34926 ft | 418 kts | 220° |
| 2026-04-20 09:27 | 33.90119 | -9.30816 | 34927 ft | 418 kts | 220° |
| 2026-04-20 09:28 | 33.85558 | -9.35140 | 34917 ft | 417 kts | 220° |
| 2026-04-20 09:28 | 33.80988 | -9.39457 | 34911 ft | 417 kts | 220° |
| 2026-04-20 09:29 | 33.76422 | -9.43768 | 34915 ft | 418 kts | 220° |
| 2026-04-20 09:29 | 33.71844 | -9.48083 | 34920 ft | 418 kts | 220° |
| 2026-04-20 09:30 | 33.67279 | -9.52384 | 34927 ft | 417 kts | 220° |
| 2026-04-20 09:30 | 33.62710 | -9.56677 | 34923 ft | 416 kts | 220° |
| 2026-04-20 09:31 | 33.58151 | -9.60955 | 34919 ft | 416 kts | 220° |
| 2026-04-20 09:31 | 33.54356 | -9.64510 | 34910 ft | 416 kts | 220° |
| 2026-04-20 09:32 | 33.49786 | -9.68787 | 34910 ft | 416 kts | 220° |
| 2026-04-20 09:32 | 33.45224 | -9.73053 | 34910 ft | 416 kts | 220° |
| 2026-04-20 09:33 | 33.40666 | -9.77312 | 34905 ft | 416 kts | 220° |
| 2026-04-20 09:33 | 33.36102 | -9.81571 | 34904 ft | 416 kts | 220° |
| 2026-04-20 09:34 | 33.31535 | -9.85822 | 34908 ft | 416 kts | 220° |
| 2026-04-20 09:34 | 33.24698 | -9.92183 | 34899 ft | 415 kts | 220° |
| 2026-04-20 09:35 | 33.20148 | -9.96414 | 34905 ft | 415 kts | 220° |
| 2026-04-20 09:35 | 33.15586 | -10.00639 | 34901 ft | 415 kts | 220° |
| 2026-04-20 09:36 | 33.11031 | -10.04854 | 34904 ft | 414 kts | 220° |
| 2026-04-20 09:36 | 33.06471 | -10.09068 | 34900 ft | 414 kts | 220° |
| 2026-04-20 09:37 | 33.01919 | -10.13274 | 34893 ft | 414 kts | 220° |
| 2026-04-20 09:37 | 32.97359 | -10.17479 | 34893 ft | 414 kts | 220° |
| 2026-04-20 09:38 | 32.92800 | -10.21671 | 34903 ft | 414 kts | 220° |
| 2026-04-20 09:38 | 32.88235 | -10.25857 | 34904 ft | 414 kts | 220° |
| 2026-04-20 09:39 | 32.83682 | -10.30030 | 34895 ft | 413 kts | 220° |
| 2026-04-20 09:39 | 32.79129 | -10.34205 | 34891 ft | 413 kts | 220° |
| 2026-04-20 09:40 | 32.74576 | -10.38372 | 34889 ft | 413 kts | 220° |
| 2026-04-20 09:40 | 32.70035 | -10.42525 | 34874 ft | 412 kts | 220° |
| 2026-04-20 09:41 | 32.65512 | -10.46636 | 34872 ft | 412 kts | 220° |
| 2026-04-20 09:41 | 32.60935 | -10.50805 | 34874 ft | 412 kts | 220° |
| 2026-04-20 09:42 | 32.56414 | -10.54924 | 34873 ft | 412 kts | 220° |
| 2026-04-20 09:42 | 32.51836 | -10.59088 | 34880 ft | 412 kts | 220° |
| 2026-04-20 09:43 | 32.47286 | -10.63207 | 34877 ft | 411 kts | 220° |
| 2026-04-20 09:43 | 32.42751 | -10.67314 | 34864 ft | 410 kts | 220° |
| 2026-04-20 09:44 | 32.38248 | -10.71396 | 34864 ft | 410 kts | 220° |
| 2026-04-20 09:44 | 32.33690 | -10.75519 | 34864 ft | 410 kts | 220° |
| 2026-04-20 09:45 | 32.29187 | -10.79583 | 34861 ft | 410 kts | 220° |
| 2026-04-20 09:45 | 32.24626 | -10.83695 | 34862 ft | 410 kts | 220° |
| 2026-04-20 09:46 | 32.20120 | -10.87748 | 34853 ft | 410 kts | 220° |
| 2026-04-20 09:46 | 32.15590 | -10.91823 | 34853 ft | 410 kts | 220° |
| 2026-04-20 09:47 | 32.11047 | -10.95897 | 34864 ft | 410 kts | 220° |
| 2026-04-20 09:47 | 32.06522 | -10.99955 | 34871 ft | 408 kts | 220° |
| 2026-04-20 09:48 | 32.02006 | -11.04008 | 34866 ft | 407 kts | 220° |
| 2026-04-20 09:48 | 31.97498 | -11.08042 | 34865 ft | 407 kts | 220° |
| 2026-04-20 09:49 | 31.92987 | -11.12071 | 34860 ft | 406 kts | 220° |
| 2026-04-20 09:49 | 31.88482 | -11.16084 | 34859 ft | 406 kts | 220° |
| 2026-04-20 09:50 | 31.83973 | -11.20105 | 34841 ft | 407 kts | 220° |
| 2026-04-20 09:50 | 31.79434 | -11.24147 | 34846 ft | 407 kts | 220° |
| 2026-04-20 09:51 | 31.74946 | -11.28126 | 34847 ft | 406 kts | 220° |
| 2026-04-20 09:51 | 31.70417 | -11.32168 | 34860 ft | 406 kts | 221° |
| 2026-04-20 09:52 | 31.65959 | -11.36159 | 34863 ft | 405 kts | 221° |
| 2026-04-20 09:52 | 31.61478 | -11.40150 | 34859 ft | 404 kts | 221° |
| 2026-04-20 09:53 | 31.56996 | -11.44139 | 34866 ft | 404 kts | 221° |
| 2026-04-20 09:53 | 31.52520 | -11.48115 | 34844 ft | 404 kts | 221° |
| 2026-04-20 09:54 | 31.48031 | -11.52087 | 34844 ft | 404 kts | 221° |
| 2026-04-20 09:54 | 31.43548 | -11.56055 | 34853 ft | 404 kts | 221° |
| 2026-04-20 09:55 | 31.39062 | -11.60026 | 34852 ft | 404 kts | 221° |
| 2026-04-20 09:55 | 31.34579 | -11.63979 | 34841 ft | 404 kts | 221° |
| 2026-04-20 09:56 | 31.30093 | -11.67938 | 34851 ft | 404 kts | 221° |
| 2026-04-20 09:56 | 31.25615 | -11.71886 | 34829 ft | 403 kts | 221° |
| 2026-04-20 09:57 | 31.21130 | -11.75836 | 34835 ft | 404 kts | 221° |
| 2026-04-20 09:57 | 31.16641 | -11.79789 | 34835 ft | 404 kts | 221° |
| 2026-04-20 09:58 | 31.12152 | -11.83735 | 34842 ft | 404 kts | 221° |
| 2026-04-20 09:58 | 31.07662 | -11.87677 | 34835 ft | 404 kts | 221° |
| 2026-04-20 09:59 | 31.03162 | -11.91615 | 34847 ft | 404 kts | 221° |
| 2026-04-20 09:59 | 30.98660 | -11.95551 | 34845 ft | 404 kts | 221° |
| 2026-04-20 10:00 | 30.94164 | -11.99482 | 34834 ft | 404 kts | 221° |
| 2026-04-20 10:00 | 30.89660 | -12.03422 | 34847 ft | 405 kts | 221° |
| 2026-04-20 10:01 | 30.85147 | -12.07343 | 34843 ft | 405 kts | 220° |
| 2026-04-20 10:01 | 30.80628 | -12.11270 | 34845 ft | 405 kts | 220° |
| 2026-04-20 10:02 | 30.76116 | -12.15194 | 34848 ft | 405 kts | 220° |
| 2026-04-20 10:02 | 30.71609 | -12.19122 | 34844 ft | 405 kts | 220° |
| 2026-04-20 10:03 | 30.67088 | -12.23048 | 34846 ft | 405 kts | 220° |
| 2026-04-20 10:03 | 30.62557 | -12.26961 | 34834 ft | 406 kts | 220° |
| 2026-04-20 10:04 | 30.58033 | -12.30881 | 34837 ft | 406 kts | 220° |
| 2026-04-20 10:04 | 30.53498 | -12.34808 | 34838 ft | 407 kts | 220° |
| 2026-04-20 10:05 | 30.48965 | -12.38728 | 34842 ft | 407 kts | 220° |
| 2026-04-20 10:05 | 30.44413 | -12.42639 | 34840 ft | 407 kts | 220° |
| 2026-04-20 10:06 | 30.39863 | -12.46536 | 34846 ft | 407 kts | 220° |
| 2026-04-20 10:06 | 30.35314 | -12.50449 | 34848 ft | 407 kts | 220° |
| 2026-04-20 10:07 | 30.30759 | -12.54345 | 34839 ft | 408 kts | 220° |
| 2026-04-20 10:07 | 30.26191 | -12.58247 | 34848 ft | 408 kts | 220° |
| 2026-04-20 10:08 | 30.21628 | -12.62145 | 34851 ft | 408 kts | 220° |
| 2026-04-20 10:08 | 30.17060 | -12.66051 | 34853 ft | 408 kts | 220° |
| 2026-04-20 10:09 | 30.12498 | -12.69949 | 34855 ft | 408 kts | 220° |
| 2026-04-20 10:09 | 30.07958 | -12.73820 | 34858 ft | 408 kts | 220° |
| 2026-04-20 10:10 | 30.03365 | -12.77739 | 34857 ft | 408 kts | 220° |
| 2026-04-20 10:10 | 29.98839 | -12.81611 | 34866 ft | 407 kts | 220° |
| 2026-04-20 10:11 | 29.94283 | -12.85505 | 34870 ft | 407 kts | 220° |
| 2026-04-20 10:11 | 29.89730 | -12.89381 | 34868 ft | 407 kts | 220° |
| 2026-04-20 10:12 | 29.85172 | -12.93256 | 34869 ft | 407 kts | 220° |
| 2026-04-20 10:12 | 29.80621 | -12.97121 | 34867 ft | 407 kts | 220° |
| 2026-04-20 10:13 | 29.76067 | -13.00992 | 34865 ft | 406 kts | 220° |
| 2026-04-20 10:13 | 29.71518 | -13.04853 | 34845 ft | 407 kts | 220° |
| 2026-04-20 10:14 | 29.66949 | -13.08717 | 34851 ft | 408 kts | 220° |
| 2026-04-20 10:14 | 29.62385 | -13.12578 | 34856 ft | 408 kts | 220° |
| 2026-04-20 10:15 | 29.58558 | -13.15824 | 34861 ft | 408 kts | 219° |
| 2026-04-20 10:15 | 29.53990 | -13.19676 | 34863 ft | 408 kts | 219° |
| 2026-04-20 10:16 | 29.49412 | -13.23525 | 34866 ft | 408 kts | 219° |
| 2026-04-20 10:16 | 29.44841 | -13.27368 | 34868 ft | 408 kts | 219° |
| 2026-04-20 10:17 | 29.40259 | -13.31229 | 34852 ft | 408 kts | 219° |
| 2026-04-20 10:17 | 29.35679 | -13.35085 | 34855 ft | 409 kts | 219° |
| 2026-04-20 10:18 | 29.31126 | -13.38916 | 34865 ft | 409 kts | 219° |
| 2026-04-20 10:18 | 29.26497 | -13.42787 | 34870 ft | 409 kts | 219° |
| 2026-04-20 10:19 | 29.21927 | -13.46603 | 34868 ft | 409 kts | 219° |
| 2026-04-20 10:19 | 29.17824 | -13.51017 | 34869 ft | 403 kts | 236° |
| 2026-04-20 10:20 | 29.15373 | -13.56723 | 34870 ft | 401 kts | 255° |
| 2026-04-20 10:20 | 29.14040 | -13.62916 | 34869 ft | 401 kts | 256° |
| 2026-04-20 10:21 | 29.12686 | -13.69112 | 34872 ft | 402 kts | 255° |
| 2026-04-20 10:21 | 29.11323 | -13.75311 | 34859 ft | 402 kts | 255° |
| 2026-04-20 10:22 | 29.09960 | -13.81514 | 34863 ft | 403 kts | 256° |
| 2026-04-20 10:22 | 29.08599 | -13.87725 | 34878 ft | 403 kts | 256° |
| 2026-04-20 10:23 | 29.07236 | -13.93935 | 34887 ft | 403 kts | 256° |
| 2026-04-20 10:23 | 29.05871 | -14.00142 | 34892 ft | 403 kts | 256° |
| 2026-04-20 10:24 | 29.04503 | -14.06347 | 34891 ft | 403 kts | 255° |
| 2026-04-20 10:24 | 29.03132 | -14.12549 | 34891 ft | 402 kts | 256° |
| 2026-04-20 10:25 | 29.01760 | -14.18746 | 34891 ft | 402 kts | 255° |
| 2026-04-20 10:25 | 29.00372 | -14.24935 | 34891 ft | 402 kts | 255° |
| 2026-04-20 10:26 | 28.98988 | -14.31118 | 34891 ft | 402 kts | 255° |
| 2026-04-20 10:26 | 28.97607 | -14.37298 | 34893 ft | 401 kts | 255° |
| 2026-04-20 10:27 | 28.96220 | -14.43470 | 34894 ft | 401 kts | 255° |
| 2026-04-20 10:27 | 28.94835 | -14.49641 | 34892 ft | 401 kts | 255° |
| 2026-04-20 10:28 | 28.93450 | -14.55800 | 34891 ft | 401 kts | 255° |
| 2026-04-20 10:28 | 28.92057 | -14.61973 | 34886 ft | 402 kts | 255° |
| 2026-04-20 10:29 | 28.91359 | -14.65058 | 34494 ft | 404 kts | 255° |
| 2026-04-20 10:29 | 28.90657 | -14.68154 | 34025 ft | 402 kts | 255° |
| 2026-04-20 10:29 | 28.89953 | -14.71257 | 33349 ft | 402 kts | 255° |
| 2026-04-20 10:29 | 28.89253 | -14.74342 | 32668 ft | 401 kts | 255° |
| 2026-04-20 10:30 | 28.88554 | -14.77418 | 31994 ft | 400 kts | 255° |
| 2026-04-20 10:30 | 28.87858 | -14.80482 | 31347 ft | 398 kts | 255° |
| 2026-04-20 10:30 | 28.87126 | -14.83520 | 30710 ft | 397 kts | 250° |
| 2026-04-20 10:30 | 28.86095 | -14.86434 | 30095 ft | 395 kts | 247° |
| 2026-04-20 10:31 | 28.85039 | -14.89325 | 29393 ft | 394 kts | 247° |
| 2026-04-20 10:31 | 28.83987 | -14.92206 | 28677 ft | 393 kts | 247° |
| 2026-04-20 10:31 | 28.82932 | -14.95083 | 27988 ft | 392 kts | 247° |
| 2026-04-20 10:31 | 28.81884 | -14.97935 | 27315 ft | 391 kts | 247° |
| 2026-04-20 10:32 | 28.80835 | -15.00794 | 26609 ft | 391 kts | 247° |
| 2026-04-20 10:32 | 28.79788 | -15.03653 | 25920 ft | 390 kts | 247° |
| 2026-04-20 10:32 | 28.78746 | -15.06501 | 25247 ft | 390 kts | 246° |
| 2026-04-20 10:32 | 28.77703 | -15.09352 | 24580 ft | 389 kts | 246° |
| 2026-04-20 10:33 | 28.76655 | -15.12209 | 23935 ft | 388 kts | 246° |
| 2026-04-20 10:33 | 28.75615 | -15.15032 | 23267 ft | 387 kts | 246° |
| 2026-04-20 10:33 | 28.74575 | -15.17854 | 22518 ft | 387 kts | 246° |
| 2026-04-20 10:33 | 28.73533 | -15.20681 | 21788 ft | 387 kts | 246° |
| 2026-04-20 10:34 | 28.72488 | -15.23516 | 21070 ft | 387 kts | 246° |
| 2026-04-20 10:34 | 28.71448 | -15.26341 | 20377 ft | 386 kts | 246° |
| 2026-04-20 10:34 | 28.70409 | -15.29161 | 19696 ft | 386 kts | 246° |
| 2026-04-20 10:35 | 28.68330 | -15.34790 | 18385 ft | 386 kts | 246° |
| 2026-04-20 10:35 | 28.67291 | -15.37608 | 17675 ft | 386 kts | 246° |
| 2026-04-20 10:35 | 28.66252 | -15.40416 | 16950 ft | 385 kts | 245° |
| 2026-04-20 10:35 | 28.65209 | -15.43229 | 16243 ft | 385 kts | 245° |
| 2026-04-20 10:36 | 28.64167 | -15.46037 | 15542 ft | 385 kts | 245° |
| 2026-04-20 10:36 | 28.63123 | -15.48841 | 14858 ft | 384 kts | 244° |
| 2026-04-20 10:36 | 28.62086 | -15.51631 | 14200 ft | 383 kts | 244° |
| 2026-04-20 10:36 | 28.61050 | -15.54422 | 13531 ft | 382 kts | 244° |
| 2026-04-20 10:37 | 28.60018 | -15.57202 | 12809 ft | 380 kts | 243° |
| 2026-04-20 10:37 | 28.58990 | -15.59965 | 12101 ft | 378 kts | 243° |
| 2026-04-20 10:37 | 28.57968 | -15.62708 | 11409 ft | 375 kts | 242° |
| 2026-04-20 10:37 | 28.56957 | -15.65421 | 10752 ft | 372 kts | 242° |
| 2026-04-20 10:38 | 28.55952 | -15.68115 | 10091 ft | 368 kts | 241° |
| 2026-04-20 10:38 | 28.54957 | -15.70782 | 9406 ft | 364 kts | 241° |
| 2026-04-20 10:38 | 28.53972 | -15.73419 | 8685 ft | 360 kts | 242° |
| 2026-04-20 10:38 | 28.53001 | -15.76019 | 8008 ft | 356 kts | 242° |
| 2026-04-20 10:39 | 28.52039 | -15.78596 | 7330 ft | 352 kts | 242° |
| 2026-04-20 10:39 | 28.51086 | -15.81142 | 6652 ft | 348 kts | 242° |
| 2026-04-20 10:39 | 28.50147 | -15.83652 | 5988 ft | 344 kts | 243° |
| 2026-04-20 10:39 | 28.49214 | -15.86143 | 5301 ft | 341 kts | 243° |
| 2026-04-20 10:40 | 28.48300 | -15.88585 | 4974 ft | 327 kts | 244° |
| 2026-04-20 10:40 | 28.47446 | -15.90871 | 4866 ft | 309 kts | 243° |
| 2026-04-20 10:40 | 28.46634 | -15.93043 | 4886 ft | 286 kts | 243° |
| 2026-04-20 10:40 | 28.45899 | -15.95014 | 4884 ft | 257 kts | 243° |
| 2026-04-20 10:41 | 28.45210 | -15.96855 | 4885 ft | 251 kts | 242° |
| 2026-04-20 10:41 | 28.44525 | -15.98670 | 4889 ft | 249 kts | 242° |
| 2026-04-20 10:41 | 28.43839 | -16.00477 | 4901 ft | 249 kts | 243° |
| 2026-04-20 10:41 | 28.43179 | -16.02221 | 4895 ft | 232 kts | 243° |
| 2026-04-20 10:42 | 28.42554 | -16.03880 | 4894 ft | 226 kts | 243° |
| 2026-04-20 10:42 | 28.41933 | -16.05525 | 4902 ft | 225 kts | 243° |
| 2026-04-20 10:42 | 28.41317 | -16.07156 | 4904 ft | 226 kts | 243° |
| 2026-04-20 10:42 | 28.40718 | -16.08804 | 4908 ft | 227 kts | 249° |
| 2026-04-20 10:43 | 28.40553 | -16.10598 | 4913 ft | 234 kts | 272° |
| 2026-04-20 10:43 | 28.41004 | -16.12388 | 4916 ft | 239 kts | 286° |
| 2026-04-20 10:43 | 28.41603 | -16.14155 | 4914 ft | 240 kts | 286° |
| 2026-04-20 10:43 | 28.42199 | -16.15923 | 4913 ft | 239 kts | 286° |
| 2026-04-20 10:44 | 28.42791 | -16.17697 | 4746 ft | 239 kts | 286° |
| 2026-04-20 10:44 | 28.43375 | -16.19445 | 4464 ft | 233 kts | 287° |
| 2026-04-20 10:44 | 28.43935 | -16.21122 | 4170 ft | 221 kts | 287° |
| 2026-04-20 10:44 | 28.44466 | -16.22716 | 3878 ft | 211 kts | 287° |
| 2026-04-20 10:45 | 28.44968 | -16.24226 | 3641 ft | 198 kts | 288° |
| 2026-04-20 10:45 | 28.45439 | -16.25642 | 3366 ft | 186 kts | 288° |
| 2026-04-20 10:45 | 28.45880 | -16.26968 | 3152 ft | 170 kts | 289° |
| 2026-04-20 10:45 | 28.46281 | -16.28173 | 2919 ft | 157 kts | 289° |
| 2026-04-20 10:46 | 28.46653 | -16.29294 | 2703 ft | 147 kts | 290° |
| 2026-04-20 10:46 | 28.47010 | -16.30356 | 2485 ft | 141 kts | 291° |
| 2026-04-20 10:46 | 28.47352 | -16.31380 | 2324 ft | 138 kts | 290° |
| 2026-04-20 10:46 | 28.47682 | -16.32402 | 2093 ft | 137 kts | 290° |
| 2026-04-20 10:47 | 28.48005 | -16.33356 | 2039 ft | 114 kts | 290° |
| 2026-04-20 10:47 | 28.48218 | -16.34011 | 2051 ft | 64 kts | 291° |
| 2026-04-20 10:47 | 28.48340 | -16.34376 | 2062 ft | 40 kts | 291° |
| 2026-04-20 10:47 | 28.48428 | -16.34639 | 2073 ft | 31 kts | 291° |
| 2026-04-20 10:48 | 28.48496 | -16.34847 | 2082 ft | 24 kts | 290° |
| 2026-04-20 10:48 | 28.48548 | -16.35003 | 2089 ft | 19 kts | 291° |
| 2026-04-20 10:48 | 28.48596 | -16.35140 | 2087 ft | 19 kts | 295° |
| 2026-04-20 10:48 | 28.48670 | -16.35264 | 2083 ft | 14 kts | 308° |
| 2026-04-20 10:49 | 28.48739 | -16.35314 | 2078 ft | 14 kts | 26° |
| 2026-04-20 10:49 | 28.48737 | -16.35225 | 2079 ft | 11 kts | 110° |
| 2026-04-20 10:49 | 28.48713 | -16.35153 | 2081 ft | 11 kts | 110° |
| 2026-04-20 10:49 | 28.48687 | -16.35072 | 2082 ft | 10 kts | 110° |
| 2026-04-20 10:50 | 28.48664 | -16.35003 | 2084 ft | 8 kts | 110° |
| 2026-04-20 10:50 | 28.48647 | -16.34951 | 2084 ft | 6 kts | 110° |
| 2026-04-20 10:50 | 28.48632 | -16.34906 | 2083 ft | 6 kts | 106° |
| 2026-04-20 10:50 | 28.48661 | -16.34853 | 2076 ft | 11 kts | 43° |
| 2026-04-20 10:51 | 28.48694 | -16.34811 | 2076 ft | 6 kts | 49° |
| 2026-04-20 10:51 | 28.48715 | -16.34785 | 2075 ft | 2 kts | 49° |
| 2026-04-20 10:51 | 28.48715 | -16.34784 | 2075 ft | 0 kts | 49° |